Time;durP1;ratioP1;P1;durP2;ratioP2;P2;SDS_P1;SDS_P2;PMS_P1;PMS_P2;Temp;Humidity;BMP_temperature;BMP_pressure;BME280_temperature;BME280_humidity;BME280_pressure;Samples;Min_cycle;Max_cycle;Signal;HPM_P1;HPM_P2
2024/03/13 00:00:28;;;;;;;8.90;5.50;;;;;;;5.30;93.68;100678.63;107587;1251;110755;-68
2024/03/13 00:03:17;;;;;;;13.80;6.70;;;;;;;5.29;93.34;100683.20;107619;1251;108689;-70
2024/03/13 00:05:47;;;;;;;11.60;6.10;;;;;;;5.30;93.58;100683.09;107632;1250;108159;-73
2024/03/13 00:08:16;;;;;;;16.70;6.90;;;;;;;5.32;93.53;100681.90;107628;1250;97890;-72
2024/03/13 00:10:46;;;;;;;9.70;6.20;;;;;;;5.32;93.46;100680.11;107714;1250;98361;-72
2024/03/13 00:13:15;;;;;;;10.50;6.90;;;;;;;5.33;93.63;100676.30;107733;1251;112348;-71
2024/03/13 00:15:44;;;;;;;11.40;6.00;;;;;;;5.33;93.34;100676.84;107619;1250;108608;-69
2024/03/13 00:18:14;;;;;;;11.40;6.20;;;;;;;5.35;93.52;100674.61;107556;1251;106896;-69
2024/03/13 00:20:44;;;;;;;9.20;5.80;;;;;;;5.36;93.56;100673.64;107491;1251;97849;-69
2024/03/13 00:23:12;;;;;;;9.90;6.30;;;;;;;5.37;93.41;100669.87;107424;1251;98370;-69
2024/03/13 00:25:41;;;;;;;8.70;6.60;;;;;;;5.35;93.15;100671.59;107456;1257;111790;-68
2024/03/13 00:28:09;;;;;;;15.60;6.20;;;;;;;5.33;93.13;100674.89;107563;1250;107705;-68
2024/03/13 00:30:38;;;;;;;9.90;6.30;;;;;;;5.32;93.25;100673.20;107651;1251;108241;-68
2024/03/13 00:33:08;;;;;;;11.30;6.40;;;;;;;5.31;93.05;100668.47;107704;1251;97958;-70
2024/03/13 00:35:37;;;;;;;13.20;7.10;;;;;;;5.28;92.94;100663.50;107585;1250;97813;-70
2024/03/13 00:38:06;;;;;;;16.60;7.50;;;;;;;5.30;93.12;100663.32;107584;1253;112710;-71
2024/03/13 00:40:37;;;;;;;15.70;7.00;;;;;;;5.34;93.45;100661.11;107580;1251;106816;-71
2024/03/13 00:43:05;;;;;;;16.90;7.70;;;;;;;5.39;93.79;100659.90;107433;1251;107839;-71
2024/03/13 00:45:34;;;;;;;13.60;7.20;;;;;;;5.45;93.98;100660.76;107647;1255;97825;-71
2024/03/13 00:48:04;;;;;;;12.20;7.20;;;;;;;5.47;93.40;100658.98;107593;1251;97820;-69
2024/03/13 00:50:33;;;;;;;12.70;6.90;;;;;;;5.47;93.21;100660.44;107665;1248;110837;-70
2024/03/13 00:53:02;;;;;;;13.50;7.40;;;;;;;5.49;93.41;100657.07;107761;1251;108400;-71
2024/03/13 00:55:30;;;;;;;9.50;6.20;;;;;;;5.52;93.20;100660.66;107415;1251;108641;-68
2024/03/13 00:58:01;;;;;;;16.00;8.40;;;;;;;5.53;93.22;100661.60;107561;1251;97798;-69
2024/03/13 01:00:34;;;;;;;14.40;7.00;;;;;;;5.51;92.89;100656.43;107696;1253;97865;-67
2024/03/13 01:03:04;;;;;;;13.00;7.10;;;;;;;5.47;92.73;100652.45;107821;1251;111855;-67
2024/03/13 01:05:34;;;;;;;14.70;6.70;;;;;;;5.45;92.74;100650.40;107550;1251;107807;-67
2024/03/13 01:08:03;;;;;;;8.30;6.40;;;;;;;5.43;92.67;100653.02;107524;1251;107616;-69
2024/03/13 01:10:32;;;;;;;12.30;6.40;;;;;;;5.40;92.53;100651.45;107581;1251;97708;-68
2024/03/13 01:13:01;;;;;;;12.00;7.70;;;;;;;5.39;92.72;100648.14;107654;1251;97703;-69
2024/03/13 01:15:29;;;;;;;11.20;7.20;;;;;;;5.40;92.92;100646.13;107671;1251;112365;-69
2024/03/13 01:17:57;;;;;;;14.00;7.00;;;;;;;5.40;92.77;100646.16;107631;1251;107258;-68
2024/03/13 01:20:26;;;;;;;15.00;7.00;;;;;;;5.42;93.00;100644.03;107604;1250;108572;-67
2024/03/13 01:22:56;;;;;;;14.10;7.60;;;;;;;5.41;93.12;100639.15;107582;1251;97832;-67
2024/03/13 01:25:24;;;;;;;12.40;7.20;;;;;;;5.36;92.88;100635.39;107652;1251;97843;-67
2024/03/13 01:27:53;;;;;;;16.00;7.70;;;;;;;5.33;92.97;100634.14;107643;1250;111375;-67
2024/03/13 01:30:23;;;;;;;13.90;7.40;;;;;;;5.29;92.78;100632.35;107568;1250;108153;-66
2024/03/13 01:32:52;;;;;;;15.50;8.10;;;;;;;5.24;92.80;100633.72;107596;1250;107836;-68
2024/03/13 01:35:21;;;;;;;13.50;8.10;;;;;;;5.23;92.98;100631.67;107649;1250;97845;-66
2024/03/13 01:37:58;;;;;;;14.30;7.60;;;;;;;5.24;93.48;100632.34;107638;1250;97925;-67
2024/03/13 01:55:24;;;;;;;15.20;8.80;;;;;;;5.39;94.01;100635.38;107626;1251;111624;-70
2024/03/13 02:03:16;;;;;;;19.00;9.70;;;;;;;5.42;93.54;100624.49;107596;1255;97858;-68
2024/03/13 02:05:47;;;;;;;11.90;8.00;;;;;;;5.41;93.13;100629.20;107664;1250;98344;-70
2024/03/13 02:08:19;;;;;;;13.40;7.40;;;;;;;5.42;93.41;100624.33;107604;1253;111202;-70
2024/03/13 02:10:51;;;;;;;14.80;8.30;;;;;;;5.39;93.08;100627.02;107625;1251;108907;-66
2024/03/13 02:13:20;;;;;;;18.10;7.50;;;;;;;5.41;93.23;100632.05;107601;1251;108222;-68
2024/03/13 02:15:49;;;;;;;10.80;6.00;;;;;;;5.42;93.15;100631.98;107658;1251;97836;-69
2024/03/13 02:18:29;;;;;;;11.40;7.70;;;;;;;5.38;93.25;100630.61;107609;1251;97905;-70
2024/03/13 02:21:01;;;;;;;12.10;6.90;;;;;;;5.42;93.67;100628.55;107490;1251;110955;-70
2024/03/13 02:23:30;;;;;;;12.10;7.40;;;;;;;5.46;93.60;100630.98;107564;1251;108916;-70
2024/03/13 02:25:59;;;;;;;13.40;8.20;;;;;;;5.51;93.62;100633.34;107529;1251;108346;-67
2024/03/13 02:28:39;;;;;;;13.20;6.90;;;;;;;5.51;93.56;100633.69;107651;1251;98024;-68
2024/03/13 02:31:07;;;;;;;16.50;7.60;;;;;;;5.50;93.19;100631.05;107539;1251;97742;-67
2024/03/13 02:33:36;;;;;;;14.10;7.90;;;;;;;5.48;93.04;100630.98;107712;1248;111952;-67
2024/03/13 02:36:05;;;;;;;13.10;6.70;;;;;;;5.48;93.12;100625.48;107847;1249;108575;-68
2024/03/13 02:38:35;;;;;;;10.50;7.30;;;;;;;5.47;92.84;100622.14;107596;1248;108665;-70
2024/03/13 02:41:03;;;;;;;10.50;7.00;;;;;;;5.47;92.96;100621.83;107561;1256;98005;-68
2024/03/13 02:43:34;;;;;;;12.20;7.30;;;;;;;5.47;92.78;100621.50;107547;1250;98392;-69
2024/03/13 02:46:03;;;;;;;8.70;6.30;;;;;;;5.44;92.75;100618.98;107591;1250;111355;-68
2024/03/13 02:48:33;;;;;;;14.40;7.50;;;;;;;5.43;92.53;100620.14;107549;1250;108350;-71
2024/03/13 02:51:03;;;;;;;10.50;6.80;;;;;;;5.40;92.95;100616.27;107570;1250;107668;-71
2024/03/13 02:53:31;;;;;;;12.20;7.20;;;;;;;5.43;92.97;100614.98;107538;1251;97848;-72
2024/03/13 02:56:01;;;;;;;11.20;7.10;;;;;;;5.46;93.25;100613.36;107517;1250;97819;-69
2024/03/13 02:58:29;;;;;;;9.60;6.40;;;;;;;5.47;92.92;100615.25;107629;1250;110965;-69
2024/03/13 03:01:01;;;;;;;13.50;6.90;;;;;;;5.48;93.09;100614.08;107552;1251;107797;-67
2024/03/13 03:03:30;;;;;;;10.80;7.50;;;;;;;5.53;93.44;100620.38;107627;1250;107753;-67
2024/03/13 03:06:02;;;;;;;13.50;6.50;;;;;;;5.56;93.21;100623.55;107513;1251;98077;-68
2024/03/13 03:08:32;;;;;;;10.90;7.20;;;;;;;5.57;93.01;100626.98;107609;1251;97915;-67
2024/03/13 03:11:03;;;;;;;11.60;7.40;;;;;;;5.57;92.87;100627.73;107549;1250;111769;-67
2024/03/13 03:13:35;;;;;;;12.10;6.60;;;;;;;5.55;92.38;100629.83;107593;1250;108475;-69
2024/03/13 03:16:04;;;;;;;10.00;6.80;;;;;;;5.53;92.69;100630.64;107521;1254;108178;-69
2024/03/13 03:18:34;;;;;;;13.20;7.00;;;;;;;5.53;92.60;100629.98;107629;1251;97823;-69
2024/03/13 03:21:07;;;;;;;13.30;8.20;;;;;;;5.53;92.65;100628.74;107639;1253;97723;-71
2024/03/13 03:23:35;;;;;;;29.60;9.20;;;;;;;5.51;92.56;100628.14;107901;1248;110885;-69
2024/03/13 03:26:04;;;;;;;14.20;8.40;;;;;;;5.50;92.76;100625.58;107677;1251;108505;-68
2024/03/13 03:28:34;;;;;;;16.20;8.00;;;;;;;5.48;92.66;100626.73;107538;1251;108455;-68
2024/03/13 03:31:04;;;;;;;12.80;8.00;;;;;;;5.45;92.47;100625.17;107585;1251;97841;-66
2024/03/13 03:33:34;;;;;;;12.70;7.50;;;;;;;5.43;92.63;100625.30;107584;1251;97825;-67
2024/03/13 03:36:05;;;;;;;8.60;6.70;;;;;;;5.43;92.84;100621.89;107575;1251;111653;-67
2024/03/13 03:38:33;;;;;;;8.50;6.70;;;;;;;5.44;92.99;100621.67;107620;1251;107126;-68
2024/03/13 03:41:02;;;;;;;8.40;6.10;;;;;;;5.44;93.22;100621.52;107587;1251;108489;-67
2024/03/13 03:43:30;;;;;;;9.10;6.20;;;;;;;5.43;93.10;100617.80;107633;1251;97820;-69
2024/03/13 03:45:59;;;;;;;8.60;6.40;;;;;;;5.42;93.47;100619.11;107573;1251;99515;-70
2024/03/13 03:48:28;;;;;;;10.40;7.40;;;;;;;5.43;93.35;100616.45;107683;1250;111279;-71
2024/03/13 03:50:56;;;;;;;9.40;7.00;;;;;;;5.41;93.26;100616.17;107673;1250;108298;-71
2024/03/13 03:53:25;;;;;;;12.30;6.10;;;;;;;5.38;93.35;100617.16;107535;1251;108055;-71
2024/03/13 03:55:53;;;;;;;9.10;5.80;;;;;;;5.29;92.70;100616.64;107558;1251;97905;-71
2024/03/13 03:58:22;;;;;;;13.10;6.80;;;;;;;5.27;93.21;100613.78;107653;1251;97861;-71
2024/03/13 04:00:52;;;;;;;13.00;6.20;;;;;;;5.28;93.60;100612.10;107625;1250;111268;-70
2024/03/13 04:03:20;;;;;;;11.70;6.50;;;;;;;5.30;93.76;100614.08;107614;1250;108069;-71
2024/03/13 04:05:49;;;;;;;15.70;6.40;;;;;;;5.32;93.98;100613.42;107483;1248;108763;-72
2024/03/13 04:08:17;;;;;;;10.90;5.90;;;;;;;5.32;93.67;100618.77;107602;1251;97737;-71
2024/03/13 04:10:45;;;;;;;8.80;5.50;;;;;;;5.29;93.11;100615.59;107448;1251;97829;-70
2024/03/13 04:13:15;;;;;;;9.80;6.20;;;;;;;5.27;93.31;100616.30;107581;1256;112149;-70
2024/03/13 04:15:44;;;;;;;13.60;6.40;;;;;;;5.24;93.26;100612.92;107622;1250;107858;-71
2024/03/13 04:18:13;;;;;;;7.60;5.10;;;;;;;5.21;93.57;100613.35;107695;1250;107680;-70
2024/03/13 04:20:43;;;;;;;7.50;5.20;;;;;;;5.16;93.97;100615.41;107605;1250;98581;-71
2024/03/13 04:23:13;;;;;;;7.70;5.30;;;;;;;5.14;93.87;100613.06;107594;1251;98411;-72
2024/03/13 04:25:43;;;;;;;7.00;5.40;;;;;;;5.14;93.86;100616.45;107674;1256;112274;-71
2024/03/13 04:28:11;;;;;;;7.80;5.30;;;;;;;5.14;94.38;100612.00;107682;1251;106713;-69
2024/03/13 04:30:41;;;;;;;7.50;5.10;;;;;;;5.12;94.35;100614.79;107610;1251;108173;-68
2024/03/13 04:33:09;;;;;;;8.40;4.80;;;;;;;5.09;94.64;100615.02;107520;1253;97890;-68
2024/03/13 04:35:38;;;;;;;7.90;6.30;;;;;;;5.10;94.65;100617.96;107627;1251;98390;-69
2024/03/13 04:38:07;;;;;;;8.60;6.10;;;;;;;5.09;94.98;100612.50;107646;1251;112159;-69
2024/03/13 04:40:39;;;;;;;8.80;6.70;;;;;;;5.08;94.87;100612.55;107638;1251;108436;-70
2024/03/13 04:43:08;;;;;;;8.60;6.20;;;;;;;5.10;95.28;100614.58;107630;1251;107698;-70
2024/03/13 04:45:37;;;;;;;9.90;6.40;;;;;;;5.10;95.38;100614.06;107473;1251;97823;-72
2024/03/13 04:48:06;;;;;;;8.80;6.10;;;;;;;5.08;95.71;100613.80;107670;1248;97819;-76
2024/03/13 04:50:35;;;;;;;9.00;5.90;;;;;;;5.08;95.58;100612.42;107859;1251;110243;-74
2024/03/13 04:53:03;;;;;;;8.00;4.90;;;;;;;5.05;95.55;100613.31;107887;1248;108367;-72
2024/03/13 04:55:32;;;;;;;6.20;5.10;;;;;;;5.03;95.40;100611.90;107565;1254;107728;-71
2024/03/13 04:58:01;;;;;;;5.70;4.60;;;;;;;5.00;95.38;100608.66;107572;1251;97818;-69
2024/03/13 05:00:30;;;;;;;7.20;5.10;;;;;;;4.98;95.64;100613.38;107564;1251;98379;-71
2024/03/13 05:02:58;;;;;;;9.70;5.20;;;;;;;5.00;95.79;100612.20;107554;1250;111983;-69
2024/03/13 05:05:27;;;;;;;6.70;5.00;;;;;;;5.01;95.75;100617.11;107615;1250;108102;-71
2024/03/13 05:07:56;;;;;;;5.20;4.30;;;;;;;5.05;95.90;100616.36;107607;1251;108158;-69
2024/03/13 05:10:29;;;;;;;4.90;4.30;;;;;;;5.06;96.08;100615.17;107579;1250;98091;-70
2024/03/13 05:12:58;;;;;;;5.50;4.50;;;;;;;5.04;95.77;100612.66;107548;1250;97842;-67
2024/03/13 05:15:26;;;;;;;8.00;5.00;;;;;;;5.04;95.84;100611.98;107783;1252;111650;-70
2024/03/13 05:17:55;;;;;;;10.50;5.80;;;;;;;5.04;95.94;100613.73;107873;1248;108127;-67
2024/03/13 05:20:24;;;;;;;15.90;7.50;;;;;;;5.05;95.86;100612.64;107891;1251;108578;-70
2024/03/13 05:22:53;;;;;;;11.30;5.90;;;;;;;5.06;95.81;100612.33;107598;1250;97828;-69
2024/03/13 05:25:24;;;;;;;10.00;5.30;;;;;;;5.03;95.63;100617.35;107533;1253;98479;-67
2024/03/13 05:27:53;;;;;;;6.80;4.50;;;;;;;4.99;95.65;100618.11;107498;1251;111271;-72
2024/03/13 05:30:21;;;;;;;6.80;4.60;;;;;;;4.98;95.64;100625.88;107595;1250;107591;-72
2024/03/13 05:32:49;;;;;;;7.80;4.30;;;;;;;4.95;95.53;100629.59;107509;1250;108818;-74
2024/03/13 05:35:19;;;;;;;6.00;4.80;;;;;;;4.94;95.61;100630.76;107764;1248;97806;-69
2024/03/13 05:37:47;;;;;;;6.90;4.80;;;;;;;4.94;95.71;100632.18;107807;1252;97950;-69
2024/03/13 05:40:17;;;;;;;9.60;4.70;;;;;;;4.92;95.76;100632.12;107625;1250;111772;-68
2024/03/13 05:42:46;;;;;;;8.70;5.20;;;;;;;4.92;95.69;100634.27;107483;1256;108771;-69
2024/03/13 05:45:15;;;;;;;8.70;5.90;;;;;;;4.90;95.81;100632.63;107609;1251;108708;-69
2024/03/13 05:47:44;;;;;;;7.60;5.30;;;;;;;4.88;95.88;100635.46;107563;1251;97951;-68
2024/03/13 05:50:17;;;;;;;7.40;5.40;;;;;;;4.84;96.03;100635.13;107636;1250;97806;-71
2024/03/13 05:52:46;;;;;;;6.80;4.80;;;;;;;4.82;96.12;100636.18;107554;1250;112112;-67
2024/03/13 05:55:14;;;;;;;6.80;5.00;;;;;;;4.81;96.30;100637.48;107467;1251;107480;-68
2024/03/13 05:57:46;;;;;;;8.20;5.30;;;;;;;4.81;96.32;100641.37;107382;1254;108101;-67
2024/03/13 06:00:19;;;;;;;6.80;4.70;;;;;;;4.87;96.51;100645.13;107391;1250;97812;-68
2024/03/13 06:02:48;;;;;;;7.80;5.20;;;;;;;4.89;96.52;100650.83;107447;1250;97816;-68
2024/03/13 06:05:17;;;;;;;9.30;6.20;;;;;;;4.92;96.51;100649.54;107571;1251;111536;-69
2024/03/13 06:07:46;;;;;;;9.90;6.10;;;;;;;4.94;96.36;100649.05;107500;1251;109216;-69
2024/03/13 06:10:15;;;;;;;17.30;12.00;;;;;;;4.95;96.43;100652.34;107435;1251;108033;-71
2024/03/13 06:12:44;;;;;;;11.00;7.20;;;;;;;4.97;96.30;100652.27;107526;1250;97834;-70
2024/03/13 06:15:14;;;;;;;9.60;6.70;;;;;;;4.98;95.99;100656.81;107472;1250;97711;-70
2024/03/13 06:17:46;;;;;;;12.80;7.80;;;;;;;5.01;96.38;100659.94;107438;1250;110788;-69
2024/03/13 06:20:17;;;;;;;8.90;5.60;;;;;;;5.06;96.30;100662.88;107469;1250;108062;-69
2024/03/13 06:22:47;;;;;;;11.60;7.20;;;;;;;5.07;95.93;100660.61;107492;1253;108372;-68
2024/03/13 06:25:18;;;;;;;17.90;10.80;;;;;;;5.12;96.18;100662.77;107493;1254;97810;-69
2024/03/13 06:27:50;;;;;;;21.70;11.40;;;;;;;5.13;95.92;100661.11;107436;1251;97878;-69
2024/03/13 06:30:19;;;;;;;14.10;7.40;;;;;;;5.13;96.11;100665.18;107665;1248;111575;-69
2024/03/13 06:32:48;;;;;;;26.90;13.50;;;;;;;5.16;95.91;100668.04;107553;1250;108652;-68
2024/03/13 06:35:17;;;;;;;12.80;7.80;;;;;;;5.20;96.04;100671.19;107812;1248;107954;-67
2024/03/13 06:37:46;;;;;;;14.80;9.10;;;;;;;5.22;95.92;100672.45;107785;1253;97918;-67
2024/03/13 06:40:15;;;;;;;11.10;6.70;;;;;;;5.24;95.73;100672.86;107654;1249;97727;-70
2024/03/13 06:42:44;;;;;;;25.00;12.80;;;;;;;5.23;95.51;100676.63;107515;1254;111791;-73
2024/03/13 06:45:14;;;;;;;12.30;5.50;;;;;;;5.26;95.57;100678.55;107556;1250;108198;-74
2024/03/13 06:47:57;;;;;;;10.30;7.30;;;;;;;5.27;95.21;100680.27;107432;1250;107393;-71
2024/03/13 06:50:26;;;;;;;10.80;6.30;;;;;;;5.25;95.12;100679.15;107467;1256;98019;-69
2024/03/13 06:52:56;;;;;;;12.30;6.20;;;;;;;5.23;95.06;100682.17;107547;1250;98515;-70
2024/03/13 06:55:25;;;;;;;11.80;7.30;;;;;;;5.21;94.93;100677.16;107567;1251;111948;-70
2024/03/13 06:57:53;;;;;;;8.50;6.10;;;;;;;5.19;95.30;100678.87;107574;1250;108264;-69
2024/03/13 07:00:27;;;;;;;11.10;7.40;;;;;;;5.19;94.95;100680.31;107781;1253;107523;-70
2024/03/13 07:02:56;;;;;;;11.00;6.10;;;;;;;5.19;95.28;100679.24;107776;1253;99095;-69
2024/03/13 07:05:25;;;;;;;8.50;5.80;;;;;;;5.18;94.88;100679.29;107617;1250;97811;-70
2024/03/13 07:07:56;;;;;;;9.80;7.20;;;;;;;5.18;94.90;100681.05;107480;1251;111562;-70
2024/03/13 07:10:24;;;;;;;13.50;7.00;;;;;;;5.21;95.09;100684.98;107670;1253;107123;-69
2024/03/13 07:12:53;;;;;;;10.40;7.80;;;;;;;5.26;95.41;100682.65;107450;1251;107657;-68
2024/03/13 07:15:21;;;;;;;14.60;9.20;;;;;;;5.29;95.22;100684.07;107506;1250;97922;-70
2024/03/13 07:17:50;;;;;;;12.40;7.90;;;;;;;5.30;94.87;100685.73;107524;1251;97945;-69
2024/03/13 07:20:19;;;;;;;10.40;7.40;;;;;;;5.31;94.79;100685.19;107520;1251;111802;-70
2024/03/13 07:22:47;;;;;;;12.20;8.70;;;;;;;5.35;95.04;100688.27;107536;1254;107589;-69
2024/03/13 07:25:17;;;;;;;11.60;7.60;;;;;;;5.42;94.90;100688.72;107610;1251;107713;-70
2024/03/13 07:27:46;;;;;;;13.70;8.50;;;;;;;5.48;95.12;100690.06;107465;1251;97768;-70
2024/03/13 07:30:15;;;;;;;15.50;8.40;;;;;;;5.49;94.51;100691.39;107573;1251;98464;-71
2024/03/13 07:32:44;;;;;;;9.80;7.30;;;;;;;5.52;94.37;100692.29;107612;1251;111656;-72
2024/03/13 07:35:14;;;;;;;11.00;7.60;;;;;;;5.52;94.15;100691.08;107424;1251;108964;-72
2024/03/13 07:37:42;;;;;;;13.90;8.50;;;;;;;5.54;94.38;100692.46;107657;1250;107177;-69
2024/03/13 07:40:11;;;;;;;11.90;8.30;;;;;;;5.59;94.36;100695.02;107566;1256;97807;-68
2024/03/13 07:42:41;;;;;;;13.30;8.30;;;;;;;5.63;94.43;100697.22;107471;1254;97752;-69
2024/03/13 07:45:16;;;;;;;15.60;8.40;;;;;;;5.68;94.51;100696.55;107478;1251;111492;-71
2024/03/13 07:47:44;;;;;;;;;;;;;;;5.68;94.03;100695.27;106617;1250;1149886;-70
2024/03/13 07:50:12;;;;;;;14.10;9.00;;;;;;;5.68;93.80;100696.36;107393;1250;108265;-69
2024/03/13 07:52:41;;;;;;;12.40;7.50;;;;;;;5.68;93.68;100697.95;107546;1248;97819;-68
2024/03/13 07:55:09;;;;;;;18.50;10.30;;;;;;;5.69;93.79;100703.21;107542;1250;97823;-70
2024/03/13 07:57:38;;;;;;;12.30;8.20;;;;;;;5.71;93.62;100701.33;107456;1254;111224;-72
2024/03/13 08:00:08;;;;;;;13.10;7.80;;;;;;;5.72;93.40;100699.29;107468;1251;108464;-69
2024/03/13 08:02:39;;;;;;;12.00;7.60;;;;;;;5.77;93.53;100702.17;107523;1250;107763;-68
2024/03/13 08:05:09;;;;;;;14.10;7.90;;;;;;;5.76;93.02;100701.14;107463;1251;97848;-69
2024/03/13 08:07:37;;;;;;;11.00;7.30;;;;;;;5.80;93.36;100698.73;107569;1250;98059;-70
2024/03/13 08:10:28;;;;;;;10.80;7.00;;;;;;;5.80;93.22;100700.13;107364;1250;111960;-71
2024/03/13 08:13:14;;;;;;;12.30;7.00;;;;;;;5.84;93.08;100701.66;107659;1248;109009;-71
2024/03/13 08:16:00;;;;;;;14.00;6.90;;;;;;;5.87;93.15;100705.37;107520;1251;108280;-71
2024/03/13 08:18:46;;;;;;;14.30;6.80;;;;;;;5.90;93.13;100709.77;107551;1250;97836;-71
2024/03/13 08:21:32;;;;;;;8.60;6.50;;;;;;;5.92;93.01;100710.16;107652;1248;98387;-72
2024/03/13 08:24:18;;;;;;;10.30;5.80;;;;;;;5.91;92.33;100707.09;107724;1250;112031;-71
2024/03/13 08:27:04;;;;;;;10.20;6.10;;;;;;;5.85;92.13;100708.55;107573;1251;106950;-71
2024/03/13 08:29:50;;;;;;;11.70;6.40;;;;;;;5.86;92.25;100710.80;107574;1251;107202;-69
2024/03/13 08:32:37;;;;;;;9.80;6.30;;;;;;;5.88;92.34;100714.73;107580;1251;97858;-73
2024/03/13 08:35:23;;;;;;;7.30;6.10;;;;;;;5.88;92.28;100714.20;107596;1251;97917;-73
2024/03/13 08:38:09;;;;;;;8.60;5.70;;;;;;;5.85;91.77;100720.09;107610;1251;111269;-72
2024/03/13 08:40:58;;;;;;;7.70;5.80;;;;;;;5.87;92.16;100722.98;107566;1251;108088;-71
2024/03/13 08:43:44;;;;;;;9.70;6.20;;;;;;;5.90;92.29;100717.80;107575;1248;107635;-71
2024/03/13 08:46:30;;;;;;;8.90;6.10;;;;;;;5.95;92.58;100723.34;107587;1250;97887;-72
2024/03/13 08:49:16;;;;;;;9.20;6.00;;;;;;;6.00;92.27;100725.35;107485;1251;97925;-70
2024/03/13 08:52:03;;;;;;;7.70;5.40;;;;;;;5.99;91.92;100728.77;107607;1254;110887;-71
2024/03/13 08:54:51;;;;;;;8.50;5.30;;;;;;;5.94;90.83;100728.34;107479;1250;108108;-69
2024/03/13 08:57:37;;;;;;;6.30;5.30;;;;;;;5.90;91.14;100728.33;107615;1249;108185;-70
2024/03/13 09:00:24;;;;;;;8.90;6.10;;;;;;;5.90;91.28;100732.02;107596;1249;97861;-70
2024/03/13 09:03:10;;;;;;;10.30;5.90;;;;;;;5.92;91.30;100732.77;107549;1251;97837;-72
2024/03/13 09:05:57;;;;;;;8.80;5.30;;;;;;;5.90;90.96;100731.30;107579;1250;110247;-70
2024/03/13 09:08:29;;;;;;;6.80;5.60;;;;;;;5.89;91.30;100734.73;107480;1250;107915;-71
2024/03/13 09:11:18;;;;;;;7.70;4.60;;;;;;;5.91;91.43;100734.07;107551;1251;107510;-70
2024/03/13 09:13:47;;;;;;;10.50;4.60;;;;;;;5.90;90.97;100738.58;107568;1251;97823;-71
2024/03/13 09:16:15;;;;;;;6.20;4.30;;;;;;;5.86;90.96;100740.67;107771;1248;97734;-71
2024/03/13 09:18:44;;;;;;;6.80;4.10;;;;;;;5.83;90.95;100741.10;107748;1252;111524;-71
2024/03/13 09:21:13;;;;;;;8.60;5.20;;;;;;;5.84;91.00;100745.82;107608;1250;108565;-68
2024/03/13 09:23:42;;;;;;;7.80;5.20;;;;;;;5.83;91.22;100746.22;107605;1251;107563;-72
2024/03/13 09:26:13;;;;;;;8.70;4.60;;;;;;;5.84;91.25;100749.33;107587;1250;97902;-72
2024/03/13 09:28:41;;;;;;;6.80;4.30;;;;;;;5.86;91.20;100747.48;107467;1250;97704;-73
2024/03/13 09:31:10;;;;;;;5.60;4.40;;;;;;;5.80;90.74;100748.73;107509;1253;111614;-72
2024/03/13 09:33:38;;;;;;;8.60;5.20;;;;;;;5.77;91.00;100745.17;107507;1250;108194;-73
2024/03/13 09:36:12;;;;;;;10.30;6.50;;;;;;;5.74;90.87;100747.02;107465;1251;108716;-71
2024/03/13 09:38:42;;;;;;;8.30;4.60;;;;;;;5.75;91.08;100748.38;107742;1248;97821;-72
2024/03/13 09:41:13;;;;;;;6.00;3.90;;;;;;;5.75;91.14;100748.40;107547;1256;98361;-72
2024/03/13 09:43:43;;;;;;;5.70;3.80;;;;;;;5.75;91.22;100750.52;107587;1253;111053;-75
2024/03/13 09:46:14;;;;;;;5.70;3.90;;;;;;;5.77;91.39;100757.86;107623;1253;107711;-72
2024/03/13 09:48:44;;;;;;;5.90;4.40;;;;;;;5.77;91.48;100756.10;107641;1253;108616;-72
2024/03/13 09:51:13;;;;;;;6.10;4.40;;;;;;;5.73;91.40;100756.16;107557;1251;97845;-73
2024/03/13 09:53:46;;;;;;;8.00;4.70;;;;;;;5.75;91.68;100761.39;107576;1253;97743;-74
2024/03/13 09:56:16;;;;;;;10.10;4.50;;;;;;;5.81;91.97;100763.06;107611;1253;110438;-72
2024/03/13 09:58:49;;;;;;;9.10;3.50;;;;;;;5.87;91.80;100758.74;107611;1251;107273;-73
2024/03/13 10:01:25;;;;;;;4.50;3.40;;;;;;;5.92;91.62;100760.90;107564;1252;108001;-72
2024/03/13 10:04:02;;;;;;;5.70;3.90;;;;;;;5.99;91.72;100759.92;107561;1253;97839;-73
2024/03/13 10:06:33;;;;;;;6.30;3.80;;;;;;;6.03;91.64;100756.81;107515;1249;97812;-73
2024/03/13 10:09:11;;;;;;;6.40;3.60;;;;;;;6.11;91.86;100761.74;107457;1253;111536;-71
2024/03/13 10:11:46;;;;;;;3.90;2.90;;;;;;;6.16;91.51;100760.52;107615;1251;108392;-72
2024/03/13 10:14:16;;;;;;;3.20;2.50;;;;;;;6.15;91.08;100759.02;107597;1251;107526;-71
2024/03/13 10:16:51;;;;;;;3.20;2.50;;;;;;;6.14;90.98;100759.30;107589;1251;97815;-72
2024/03/13 10:19:28;;;;;;;3.10;2.40;;;;;;;6.17;91.32;100765.81;107561;1248;97839;-70
2024/03/13 10:21:58;;;;;;;11.20;3.20;;;;;;;6.22;91.31;100764.36;107654;1250;111701;-70
2024/03/13 10:24:28;;;;;;;4.20;2.90;;;;;;;6.26;91.13;100763.20;107565;1250;107789;-71
2024/03/13 10:26:57;;;;;;;7.60;4.10;;;;;;;6.29;90.83;100760.85;107526;1253;106692;-72
2024/03/13 10:29:26;;;;;;;6.90;3.30;;;;;;;6.31;90.32;100759.00;107645;1251;97823;-73
2024/03/13 10:31:55;;;;;;;5.40;2.60;;;;;;;6.31;90.44;100760.90;107634;1250;97755;-73
2024/03/13 10:34:24;;;;;;;6.10;2.70;;;;;;;6.36;90.39;100763.43;107485;1250;111377;-72
2024/03/13 10:36:52;;;;;;;4.50;1.90;;;;;;;6.40;90.12;100758.65;107583;1253;108335;-72
2024/03/13 10:39:35;;;;;;;4.20;2.70;;;;;;;6.44;89.77;100765.19;107447;1256;108532;-74
2024/03/13 10:42:07;;;;;;;3.70;2.50;;;;;;;6.47;89.91;100761.90;107507;1253;97846;-69
2024/03/13 10:44:37;;;;;;;4.70;2.00;;;;;;;6.48;88.31;100759.01;107526;1256;97907;-71
2024/03/13 10:47:09;;;;;;;3.10;2.20;;;;;;;6.40;88.06;100761.00;107448;1253;111454;-71
2024/03/13 10:49:41;;;;;;;5.50;2.60;;;;;;;6.36;88.16;100758.05;107495;1253;108578;-72
2024/03/13 10:52:12;;;;;;;2.60;2.20;;;;;;;6.35;88.18;100758.48;107448;1253;107491;-67
2024/03/13 10:54:41;;;;;;;4.50;2.00;;;;;;;6.36;88.32;100754.65;107512;1253;97962;-66
2024/03/13 10:57:20;;;;;;;2.90;2.20;;;;;;;6.41;88.84;100753.76;107501;1253;97719;-67
2024/03/13 10:59:49;;;;;;;2.70;1.90;;;;;;;6.47;88.49;100752.15;107540;1252;111234;-66
2024/03/13 11:02:18;;;;;;;3.20;1.90;;;;;;;6.46;87.82;100752.70;107497;1253;107606;-65
2024/03/13 11:04:49;;;;;;;6.30;2.30;;;;;;;6.46;87.84;100750.77;107474;1253;108919;-68
2024/03/13 11:07:18;;;;;;;2.10;1.90;;;;;;;6.48;87.63;100752.59;107448;1253;99299;-72
2024/03/13 11:09:47;;;;;;;2.40;1.90;;;;;;;6.45;87.45;100753.35;107388;1258;97727;-73
2024/03/13 11:12:21;;;;;;;3.80;2.20;;;;;;;6.47;87.93;100753.92;107444;1253;111399;-73
2024/03/13 11:14:55;;;;;;;2.80;1.70;;;;;;;6.49;87.47;100751.78;107526;1253;105947;-72
2024/03/13 11:17:28;;;;;;;2.50;2.10;;;;;;;6.49;87.61;100752.36;107571;1253;107347;-74
2024/03/13 11:20:14;;;;;;;4.00;1.80;;;;;;;6.49;87.56;100753.42;107448;1253;97835;-73
2024/03/13 11:22:52;;;;;;;2.30;1.50;;;;;;;6.53;87.59;100753.67;107491;1253;97711;-71
2024/03/13 11:25:22;;;;;;;2.70;1.90;;;;;;;6.54;87.66;100754.27;107468;1253;112190;-72
2024/03/13 11:27:56;;;;;;;7.00;3.90;;;;;;;6.55;87.01;100756.16;107481;1253;108158;-73
2024/03/13 11:30:28;;;;;;;3.50;2.70;;;;;;;6.52;86.85;100754.25;107551;1253;106539;-71
2024/03/13 11:32:59;;;;;;;2.40;1.70;;;;;;;6.52;86.97;100754.96;107562;1253;97859;-71
2024/03/13 11:35:29;;;;;;;3.30;1.70;;;;;;;6.49;86.48;100752.14;107527;1253;98389;-75
2024/03/13 11:37:58;;;;;;;1.90;1.50;;;;;;;6.44;86.44;100751.94;107540;1253;110682;-76
2024/03/13 11:40:36;;;;;;;9.10;5.60;;;;;;;6.41;86.70;100753.05;107623;1254;108659;-72
2024/03/13 11:43:05;;;;;;;2.70;1.60;;;;;;;6.39;86.54;100754.28;107549;1250;108549;-72
2024/03/13 11:45:44;;;;;;;1.50;1.40;;;;;;;6.36;86.70;100755.20;107575;1253;98480;-68
2024/03/13 11:48:22;;;;;;;2.70;1.50;;;;;;;6.33;86.63;100755.27;107560;1251;97752;-69
2024/03/13 11:51:00;;;;;;;2.90;1.80;;;;;;;6.30;86.77;100755.13;107536;1252;111223;-73
2024/03/13 11:53:34;;;;;;;2.00;1.40;;;;;;;6.30;86.91;100757.23;107613;1250;108570;-72
2024/03/13 11:56:04;;;;;;;6.60;1.80;;;;;;;6.32;86.85;100754.95;107471;1248;107393;-70